| Date | Time | Temp. (oF) | Dew Point (oF) | Rel. Hum. (%) | Press. (in.) | Wind Dir. | Wind Speed (mph) | Hourly Rainfall (in.) |
|
|---|---|---|---|---|---|---|---|---|---|
| 1 | 04/08 | 00:00 | 75 | 48 | 39 | 29.64 | SSW | 6 | 0.00 |
| 2 | 04/07 | 23:00 | 78 | 48 | 36 | 29.64 | SW | 6 | 0.00 |
| 3 | 04/07 | 22:00 | 78 | 48 | 36 | 29.66 | SSW | 5 | 0.00 |
| 4 | 04/07 | 21:00 | 78 | 50 | 38 | 29.65 | SSW | 4 | 0.00 |
| 5 | 04/07 | 20:00 | 79 | 49 | 36 | 29.65 | SSW | 3 | 0.00 |
| 6 | 04/07 | 19:00 | 83 | 49 | 32 | 29.64 | SSW | 4 | 0.00 |
| 7 | 04/07 | 18:00 | 86 | 45 | 25 | 29.64 | SSW | 5 | 0.00 |
| 8 | 04/07 | 17:00 | 87 | 46 | 25 | 29.65 | SSW | 9 | 0.00 |
| 9 | 04/07 | 16:00 | 89 | 51 | 28 | 29.66 | SW | 5 | 0.00 |
| 10 | 04/07 | 15:00 | 89 | 51 | 28 | 29.69 | SW | 12 | 0.00 |
| 11 | 04/07 | 14:00 | 87 | 47 | 26 | 29.72 | W | 9 | 0.00 |
| 12 | 04/07 | 13:00 | 86 | 48 | 28 | 29.72 | SSW | 10 | 0.00 |
| 13 | 04/07 | 12:00 | 85 | 52 | 33 | 29.75 | SW | 9 | 0.00 |
| 14 | 04/07 | 11:00 | 84 | 51 | 33 | 29.76 | WSW | 7 | 0.00 |
| 15 | 04/07 | 10:00 | 82 | 49 | 33 | 29.77 | SW | 5 | 0.00 |
| 16 | 04/07 | 09:00 | 75 | 52 | 46 | 29.78 | SW | 4 | 0.00 |
| 17 | 04/07 | 08:00 | 67 | 51 | 57 | 29.77 | SW | 3 | 0.00 |
| 18 | 04/07 | 07:00 | 64 | 50 | 61 | 29.75 | WSW | 1 | 0.00 |
| 19 | 04/07 | 06:00 | 67 | 51 | 57 | 29.73 | SW | 4 | 0.00 |
| 20 | 04/07 | 05:00 | 67 | 51 | 57 | 29.71 | SW | 0 | 0.00 |
| 21 | 04/07 | 04:00 | 69 | 51 | 54 | 29.70 | SW | 0 | 0.00 |
| 22 | 04/07 | 03:00 | 70 | 50 | 50 | 29.70 | SW | 3 | 0.00 |
| 23 | 04/07 | 02:00 | 72 | 49 | 46 | 29.70 | WSW | 1 | 0.00 |
| 24 | 04/07 | 01:00 | 74 | 49 | 42 | 29.71 | SSW | 5 | 0.00 |